createdAt,value
2019-05-23T00:02:06.086Z,6.40
2019-05-23T00:07:12.277Z,6.71
2019-05-23T00:12:18.317Z,6.40
2019-05-23T00:17:24.343Z,12.53
2019-05-23T00:22:30.445Z,6.63
2019-05-23T00:27:36.502Z,6.91
2019-05-23T00:32:42.546Z,11.95
2019-05-23T00:37:48.549Z,5.99
2019-05-23T00:42:54.561Z,11.35
2019-05-23T00:48:00.603Z,6.51
2019-05-23T00:53:06.604Z,10.86
2019-05-23T00:58:12.648Z,5.91
2019-05-23T01:03:18.790Z,10.10
2019-05-23T01:08:24.749Z,10.66
2019-05-23T01:13:30.764Z,5.83
2019-05-23T01:18:36.758Z,6.13
2019-05-23T01:23:42.798Z,11.10
2019-05-23T01:28:48.787Z,11.54
2019-05-23T01:33:54.821Z,12.13
2019-05-23T01:39:00.918Z,6.61
2019-05-23T01:44:06.936Z,6.56
2019-05-23T01:49:12.921Z,6.23
2019-05-23T01:54:18.944Z,6.20
2019-05-23T01:59:25.028Z,10.26
2019-05-23T02:04:31.031Z,6.26
2019-05-23T02:09:37.098Z,13.33
2019-05-23T02:14:45.875Z,12.09
2019-05-23T02:19:51.908Z,6.88
2019-05-23T02:24:57.924Z,14.18
2019-05-23T02:30:03.925Z,6.48
2019-05-23T02:35:09.970Z,6.86
2019-05-23T02:40:16.023Z,6.78
2019-05-23T02:45:22.095Z,7.10
2019-05-23T02:50:28.209Z,7.02
2019-05-23T02:55:35.594Z,6.51
2019-05-23T03:00:53.297Z,6.72
2019-05-23T03:05:47.106Z,12.15
2019-05-23T03:10:53.123Z,11.85
2019-05-23T03:15:59.147Z,6.48
2019-05-23T03:21:05.264Z,11.03
2019-05-23T03:26:11.313Z,6.70
2019-05-23T03:31:30.011Z,12.24
2019-05-23T03:36:22.927Z,6.79
2019-05-23T03:41:28.992Z,7.26
2019-05-23T03:46:35.041Z,7.26
2019-05-23T03:51:41.074Z,7.39
2019-05-23T03:56:47.110Z,12.84
2019-05-23T04:01:53.298Z,7.60
2019-05-23T04:06:59.372Z,7.21
2019-05-23T04:12:05.392Z,8.09
2019-05-23T04:17:11.367Z,7.46
2019-05-23T04:22:17.365Z,7.86
2019-05-23T04:27:23.374Z,9.34
2019-05-23T04:32:29.373Z,8.23
2019-05-23T04:37:36.560Z,15.38
2019-05-23T04:42:42.652Z,8.46
2019-05-23T04:47:48.819Z,14.63
2019-05-23T04:52:54.826Z,7.27
2019-05-23T04:58:04.251Z,7.46
2019-05-23T05:03:06.883Z,7.56
2019-05-23T05:08:13.096Z,7.70
2019-05-23T05:13:19.169Z,7.76
2019-05-23T05:18:25.108Z,12.29
2019-05-23T05:23:31.273Z,7.23
2019-05-23T05:28:37.289Z,5.90
2019-05-23T05:33:43.559Z,6.18
2019-05-23T05:38:49.598Z,5.94
2019-05-23T05:43:55.593Z,11.82
2019-05-23T05:49:01.630Z,6.41
2019-05-23T05:54:07.870Z,6.18
2019-05-23T05:59:13.812Z,6.44
2019-05-23T06:04:19.817Z,7.44
2019-05-23T06:09:25.851Z,7.58
2019-05-23T06:14:31.846Z,12.86
2019-05-23T06:19:37.920Z,7.17
2019-05-23T06:24:49.133Z,7.62
2019-05-23T06:29:50.889Z,7.57
2019-05-23T06:34:56.997Z,7.94
2019-05-23T06:40:03.053Z,7.48
2019-05-23T06:45:09.065Z,7.92
2019-05-23T06:50:15.107Z,8.50
2019-05-23T06:55:21.120Z,8.59
2019-05-23T07:00:27.190Z,8.98
2019-05-23T07:05:34.265Z,8.70
2019-05-23T07:10:40.321Z,8.60
2019-05-23T07:15:46.335Z,7.75
2019-05-23T07:20:52.391Z,8.26
2019-05-23T07:25:58.406Z,9.28
2019-05-23T07:31:04.427Z,15.15
2019-05-23T07:36:10.513Z,9.43
2019-05-23T07:41:16.632Z,9.43
2019-05-23T07:46:22.700Z,9.41
2019-05-23T07:51:29.850Z,8.53
2019-05-23T07:56:34.384Z,14.97
2019-05-23T08:01:40.395Z,16.02
2019-05-23T08:06:48.981Z,10.03
2019-05-23T08:11:52.069Z,9.52
2019-05-23T08:16:58.093Z,9.63
2019-05-23T08:22:04.363Z,10.68
2019-05-23T08:27:10.392Z,16.19
2019-05-23T08:32:16.402Z,13.99
2019-05-23T08:37:22.714Z,16.93
2019-05-23T08:42:28.935Z,11.70
2019-05-23T08:47:34.996Z,12.31
2019-05-23T08:52:41.084Z,12.70
2019-05-23T08:57:47.217Z,11.16
2019-05-23T09:02:53.334Z,12.06
2019-05-23T09:07:59.489Z,9.93
2019-05-23T09:13:05.603Z,8.89
2019-05-23T09:18:11.651Z,10.57
2019-05-23T09:23:17.837Z,8.73
2019-05-23T09:28:23.959Z,9.33
2019-05-23T09:33:30.001Z,14.65
2019-05-23T09:38:36.026Z,8.13
2019-05-23T09:43:42.082Z,8.68
2019-05-23T09:48:48.098Z,12.32
2019-05-23T09:53:54.372Z,8.26
2019-05-23T09:59:00.490Z,9.01
2019-05-23T10:04:06.713Z,8.07
2019-05-23T10:09:12.921Z,7.92
2019-05-23T10:14:19.039Z,8.24
2019-05-23T10:19:25.189Z,12.26
2019-05-23T10:24:31.251Z,10.88
2019-05-23T10:29:37.297Z,6.57
2019-05-23T10:34:43.497Z,6.46
2019-05-23T10:39:49.661Z,6.55
2019-05-23T10:44:55.741Z,6.62
2019-05-23T10:50:07.272Z,6.69
2019-05-23T10:55:07.560Z,8.16
2019-05-23T11:00:13.672Z,9.07
2019-05-23T11:05:19.859Z,6.88
2019-05-23T11:10:25.906Z,6.53
2019-05-23T11:15:31.943Z,7.83
2019-05-23T11:20:38.143Z,6.40
2019-05-23T11:25:44.242Z,6.45
2019-05-23T11:30:50.246Z,7.92
2019-05-23T11:35:56.399Z,7.06
2019-05-23T11:41:06.489Z,7.16
2019-05-23T11:46:02.560Z,5.63
2019-05-23T11:51:08.567Z,5.64
2019-05-23T11:56:14.612Z,9.55
2019-05-23T12:01:21.430Z,7.40
2019-05-23T12:06:26.661Z,6.11
2019-05-23T12:11:36.402Z,5.74
2019-05-23T12:16:37.486Z,6.57
2019-05-23T12:21:43.501Z,6.46
2019-05-23T12:26:49.630Z,6.60
2019-05-23T12:31:55.729Z,5.44
2019-05-23T12:37:18.158Z,8.69
2019-05-23T12:42:07.426Z,6.52
2019-05-23T12:47:13.449Z,5.35
2019-05-23T12:52:19.468Z,5.53
2019-05-23T12:57:25.504Z,6.00
2019-05-23T13:02:31.545Z,5.97
2019-05-23T13:07:37.614Z,3.83
2019-05-23T13:12:43.710Z,5.12
2019-05-23T13:17:49.828Z,6.17
2019-05-23T13:22:55.997Z,4.08
2019-05-23T13:28:02.074Z,2.98
2019-05-23T13:33:08.260Z,5.43
2019-05-23T13:38:14.268Z,4.40
2019-05-23T13:43:20.288Z,5.87
2019-05-23T13:48:28.260Z,4.04
2019-05-23T13:53:32.064Z,4.43
2019-05-23T13:58:38.161Z,5.03
2019-05-23T14:03:44.490Z,3.79
2019-05-23T14:08:50.707Z,3.98
2019-05-23T14:14:00.209Z,5.51
2019-05-23T14:19:02.557Z,4.18
2019-05-23T14:24:08.587Z,3.49
2019-05-23T14:29:14.753Z,3.01
2019-05-23T14:34:20.886Z,6.21
2019-05-23T14:39:26.934Z,4.42
2019-05-23T14:44:32.939Z,3.73
2019-05-23T14:49:39.134Z,4.58
2019-05-23T14:54:45.215Z,4.66
2019-05-23T14:59:51.332Z,3.35
2019-05-23T15:04:57.383Z,3.44
2019-05-23T15:10:03.489Z,3.17
2019-05-23T15:15:09.544Z,4.06
2019-05-23T15:20:15.608Z,3.44
2019-05-23T15:25:21.710Z,3.20
2019-05-23T15:30:28.285Z,4.09
2019-05-23T15:35:34.329Z,3.90
2019-05-23T15:40:40.362Z,3.34
2019-05-23T15:45:46.420Z,5.14
2019-05-23T15:50:52.606Z,3.68
2019-05-23T15:55:58.637Z,4.13
2019-05-23T16:01:04.830Z,3.74
2019-05-23T16:06:10.772Z,2.48
2019-05-23T16:11:17.766Z,3.32
2019-05-23T16:16:22.566Z,3.29
2019-05-23T16:21:28.631Z,3.14
2019-05-23T16:26:34.650Z,4.68
2019-05-23T16:31:40.790Z,2.79
2019-05-23T16:36:46.872Z,3.18
2019-05-23T16:41:52.893Z,2.72
2019-05-23T16:46:58.944Z,2.87
2019-05-23T16:52:05.303Z,3.08
2019-05-23T16:57:11.197Z,4.32
2019-05-23T17:02:17.215Z,3.13
2019-05-23T17:07:23.287Z,4.18
2019-05-23T17:12:29.672Z,4.05
2019-05-23T17:18:00.124Z,2.62
2019-05-23T17:22:41.460Z,4.21
2019-05-23T17:27:47.612Z,3.39
2019-05-23T17:32:53.606Z,2.98
2019-05-23T17:37:59.654Z,2.95
2019-05-23T17:43:05.810Z,3.54
2019-05-23T17:48:11.823Z,4.03
2019-05-23T17:53:17.900Z,3.79
2019-05-23T17:58:23.985Z,4.09
2019-05-23T18:03:30.044Z,4.21
2019-05-23T18:08:36.094Z,3.95
2019-05-23T18:13:42.401Z,3.98
2019-05-23T18:18:48.501Z,4.80
2019-05-23T18:23:54.561Z,3.13
2019-05-23T18:29:00.703Z,2.64
2019-05-23T18:34:06.746Z,3.16
2019-05-23T18:39:12.792Z,2.88
2019-05-23T18:44:18.830Z,2.51
2019-05-23T18:49:24.849Z,2.24
2019-05-23T18:54:31.221Z,3.32
2019-05-23T18:59:38.113Z,3.30
2019-05-23T19:04:44.613Z,2.29
2019-05-23T19:09:50.649Z,3.14
2019-05-23T19:14:56.690Z,4.79
2019-05-23T19:20:02.822Z,3.76
2019-05-23T19:25:08.815Z,4.37
2019-05-23T19:30:14.844Z,3.10
2019-05-23T19:35:20.929Z,2.60
2019-05-23T19:40:26.929Z,3.65
2019-05-23T19:45:32.967Z,4.57
2019-05-23T19:50:39.351Z,2.96
2019-05-23T19:55:45.391Z,3.12
2019-05-23T20:00:51.703Z,2.21
2019-05-23T20:05:57.653Z,3.50
2019-05-23T20:11:03.733Z,1.88
2019-05-23T20:16:10.208Z,2.18
2019-05-23T20:21:15.443Z,1.94
2019-05-23T20:26:21.536Z,2.09
2019-05-23T20:31:27.571Z,2.52
2019-05-23T20:36:33.568Z,4.81
2019-05-23T20:41:39.664Z,3.32
2019-05-23T20:46:45.776Z,3.41
2019-05-23T20:51:51.818Z,3.10
2019-05-23T20:56:57.961Z,2.12
2019-05-23T21:02:04.053Z,6.88
2019-05-23T21:07:10.094Z,2.50
2019-05-23T21:12:29.614Z,3.19
2019-05-23T21:17:21.685Z,6.49
2019-05-23T21:22:27.789Z,2.79
2019-05-23T21:27:33.830Z,3.08
2019-05-23T21:32:39.853Z,3.29
2019-05-23T21:37:45.878Z,3.30
2019-05-23T21:42:51.892Z,2.58
2019-05-23T21:47:57.890Z,3.39
2019-05-23T21:53:03.988Z,6.65
2019-05-23T21:58:09.970Z,2.36
2019-05-23T22:03:15.990Z,3.87
2019-05-23T22:08:22.064Z,2.74
2019-05-23T22:13:28.104Z,3.98
2019-05-23T22:18:34.109Z,3.14
2019-05-23T22:23:40.130Z,2.75
2019-05-23T22:28:46.135Z,5.05
2019-05-23T22:33:52.138Z,3.25
2019-05-23T22:38:58.112Z,3.19
2019-05-23T22:44:04.125Z,2.48
2019-05-23T22:49:10.213Z,4.38
2019-05-23T22:54:16.218Z,3.40
2019-05-23T22:59:22.232Z,3.21
2019-05-23T23:04:28.286Z,6.74
2019-05-23T23:09:34.303Z,5.56
2019-05-23T23:14:40.322Z,3.35
2019-05-23T23:19:46.319Z,2.16
2019-05-23T23:24:52.319Z,3.75
2019-05-23T23:29:58.306Z,4.50
2019-05-23T23:35:04.358Z,2.85
2019-05-23T23:40:10.571Z,5.96
2019-05-23T23:45:16.574Z,4.89
2019-05-23T23:50:22.580Z,2.36
2019-05-23T23:55:28.614Z,3.26
